Weather at Cherokee County Regional Airport

Public forecast

Using degrees Fahrenheit for public forecast. Weather courtesy of forecast.io.

Current aviation weather report (METAR) for Cherokee County Regional Airport

Retrieved 2021/05/09 01:35 UTC (10 minutes ago):

KCNI 090135Z AUTO 00000KT 10SM CLR 17/08 A3009 RMK AO2

Closest aviation forecast (TAF) to Cherokee County Regional Airport

Closest forecast is Cobb County-Mc Collum Field, 19.9 nm (36.8 km) SSW. Retrieved 2021-05-09 00:21 UTC (1 hour ago):

TAF KRYY 082320Z 0900/0924 26006KT P6SM SCT100 FM090400 VRB03KT P6SM FEW250 FM091500 22011G19KT P6SM FEW050 SCT250